Flight Briefing for CPX260

Departure Arrival
General Edward Lawrence Logan International Airport (KBOS)
Click to view FAA NOTAMS
Washington Dulles International Airport (KIAD)
Click to view FAA NOTAMS
Departure Time Arrival Time
N/A N/A
Aircraft Distance
B767-300BDSF 359nm
Departure METAR Arrival METAR
KBOS 221154Z 04024G32KT 10SM -RA SCT006 BKN011 OVC060 04/02 A2933 RMK AO2 PK WND 06038/1055 SLP932 P0003 60041 70046 T00440022 10050 20044 56043 KIAD 221152Z 30026G36KT 10SM BKN035 OVC045 07/00 A2963 RMK AO2 PK WND 31036/1147 SLP036 60000 70225 T00670000 10072 20050 53016
Suggested Route
BLZZR4 BLZZR BAF HYPER7


View recent IFR Routes data
Notes



Charts and Procedures

Charts for KBOS
No chart available
Charts for KIAD
No chart available

Windy.com Weather Map